Accueil
METAR-TAF:

METAR-TAF

Aéroports :

Turin, Italie

latitude: 45-05-20N, longitude: 007-36-20E, altitude: 288 m

Observation

Le bulletin a été fait il y a 9 heures et 9 minutes, à 16:50 UTC
Vent 5 kt de sud, variant entre sud/sud-est et sud-ouest
Température 34°C
Humidité 39%
Pression 1014 hPa
Visibilité 10 km ou plus
pas de nuages en-dessous de 1500 mètres et pas de cumulonimbus.

METAR: LIMA 231650Z 19005KT 150V220 CAVOK 34/18 Q1014

Heure: 03:59 (01:59 UTC)


TAF: absent

Observations et prévisions météorologiques de plus de 4000 aéroports (messages METAR et TAF).

Les stations disponibles sont représentées par des disques jaunes et rouges sur la carte.

Passer la souris dessus pour voir le nom de la station.

Cliquer dessus pour voir les observations et prévisions météorologiques.

Pour changer de carte: cliquez sur les boutons verts avec une croix noire pour zoomer, sur le bouton vert avec un tiret pour effectuer un zoom arrière, ou sur les flèches vertes pour les cartes adjacentes.


METAR-TAF: